createdAt,value
2019-05-19T00:01:25.954Z,3.70
2019-05-19T00:03:55.528Z,4.13
2019-05-19T00:06:25.166Z,3.90
2019-05-19T00:08:54.770Z,4.10
2019-05-19T00:11:24.427Z,4.17
2019-05-19T00:13:54.033Z,3.90
2019-05-19T00:16:23.629Z,3.87
2019-05-19T00:18:53.258Z,4.10
2019-05-19T00:21:22.869Z,3.90
2019-05-19T00:23:52.525Z,4.17
2019-05-19T00:26:22.093Z,3.53
2019-05-19T00:28:51.704Z,3.80
2019-05-19T00:31:21.339Z,3.57
2019-05-19T00:33:50.932Z,3.90
2019-05-19T00:36:20.544Z,3.50
2019-05-19T00:38:50.220Z,3.60
2019-05-19T00:41:19.801Z,3.77
2019-05-19T00:43:49.422Z,3.80
2019-05-19T00:46:19.011Z,3.10
2019-05-19T00:48:48.685Z,3.10
2019-05-19T00:51:18.556Z,3.00
2019-05-19T00:53:48.137Z,3.43
2019-05-19T00:56:18.419Z,3.07
2019-05-19T00:58:49.366Z,3.70
2019-05-19T01:01:19.061Z,3.03
2019-05-19T01:03:48.675Z,3.70
2019-05-19T01:06:18.278Z,3.27
2019-05-19T01:08:47.869Z,3.57
2019-05-19T01:11:17.591Z,3.07
2019-05-19T01:13:47.231Z,3.23
2019-05-19T01:16:16.835Z,3.00
2019-05-19T01:18:46.443Z,3.33
2019-05-19T01:21:16.036Z,3.00
2019-05-19T01:23:45.669Z,3.20
2019-05-19T01:26:15.342Z,3.30
2019-05-19T01:28:44.958Z,3.37
2019-05-19T01:31:14.542Z,3.40
2019-05-19T01:33:44.274Z,3.43
2019-05-19T01:36:13.928Z,3.37
2019-05-19T01:38:43.541Z,3.50
2019-05-19T01:41:13.187Z,3.47
2019-05-19T01:43:42.793Z,3.33
2019-05-19T01:46:12.418Z,3.30
2019-05-19T01:48:42.018Z,3.20
2019-05-19T01:51:11.774Z,3.00
2019-05-19T01:53:41.373Z,3.00
2019-05-19T01:56:10.953Z,3.60
2019-05-19T01:58:40.574Z,3.20
2019-05-19T02:01:10.215Z,3.07
2019-05-19T02:03:39.867Z,3.20
2019-05-19T02:06:09.592Z,3.17
2019-05-19T02:08:39.220Z,3.00
2019-05-19T02:11:08.851Z,2.87
2019-05-19T02:13:38.454Z,3.23
2019-05-19T02:16:08.144Z,2.87
2019-05-19T02:18:37.763Z,2.83
2019-05-19T02:21:07.401Z,2.60
2019-05-19T02:23:36.982Z,3.03
2019-05-19T02:26:06.570Z,3.20
2019-05-19T02:28:36.217Z,2.90
2019-05-19T02:31:05.823Z,2.80
2019-05-19T02:33:36.030Z,2.50
2019-05-19T02:36:05.834Z,2.77
2019-05-19T02:38:35.428Z,3.00
2019-05-19T02:41:06.888Z,3.03
2019-05-19T02:43:37.411Z,2.93
2019-05-19T02:46:07.717Z,3.10
2019-05-19T02:48:39.161Z,2.87
2019-05-19T02:51:10.436Z,2.93
2019-05-19T02:53:40.436Z,3.53
2019-05-19T02:56:11.043Z,3.03
2019-05-19T02:58:41.964Z,3.23
2019-05-19T03:01:11.601Z,3.00
2019-05-19T03:03:41.197Z,2.90
2019-05-19T03:06:10.807Z,3.10
2019-05-19T03:08:40.419Z,2.70
2019-05-19T03:11:10.046Z,2.77
2019-05-19T03:13:39.635Z,2.80
2019-05-19T03:16:09.287Z,2.80
2019-05-19T03:18:38.920Z,2.80
2019-05-19T03:21:11.405Z,2.93
2019-05-19T03:23:39.831Z,2.37
2019-05-19T03:26:09.476Z,2.80
2019-05-19T03:28:39.166Z,2.77
2019-05-19T03:31:19.510Z,2.80
2019-05-19T03:33:49.847Z,2.93
2019-05-19T03:36:19.460Z,3.20
2019-05-19T03:38:49.118Z,2.83
2019-05-19T03:41:18.799Z,2.80
2019-05-19T03:43:48.446Z,3.20
2019-05-19T03:46:18.167Z,3.00
2019-05-19T03:48:47.760Z,2.80
2019-05-19T03:51:30.005Z,2.90
2019-05-19T03:53:48.731Z,2.70
2019-05-19T03:56:18.387Z,3.27
2019-05-19T03:58:47.993Z,2.70
2019-05-19T04:01:17.666Z,2.70
2019-05-19T04:03:47.290Z,3.03
2019-05-19T04:06:16.916Z,3.00
2019-05-19T04:08:46.549Z,3.20
2019-05-19T04:11:16.111Z,2.57
2019-05-19T04:13:45.753Z,3.23
2019-05-19T04:16:15.359Z,3.23
2019-05-19T04:18:44.963Z,3.60
2019-05-19T04:21:14.592Z,4.53
2019-05-19T04:23:44.198Z,4.10
2019-05-19T04:26:13.803Z,3.63
2019-05-19T04:28:43.401Z,4.37
2019-05-19T04:31:13.009Z,4.60
2019-05-19T04:33:42.667Z,3.97
2019-05-19T04:36:12.297Z,4.43
2019-05-19T04:38:41.879Z,4.70
2019-05-19T04:41:11.473Z,5.40
2019-05-19T04:43:41.110Z,4.90
2019-05-19T04:46:10.771Z,4.90
2019-05-19T04:48:40.404Z,5.03
2019-05-19T04:51:09.974Z,5.30
2019-05-19T04:53:39.581Z,5.50
2019-05-19T04:56:09.210Z,5.10
2019-05-19T04:58:38.866Z,5.30
2019-05-19T05:01:08.488Z,5.73
2019-05-19T05:03:38.091Z,5.50
2019-05-19T05:06:07.897Z,5.43
2019-05-19T05:08:37.503Z,5.23
2019-05-19T05:11:07.137Z,5.47
2019-05-19T05:13:36.747Z,5.20
2019-05-19T05:16:06.361Z,5.47
2019-05-19T05:18:35.982Z,5.33
2019-05-19T05:21:05.583Z,4.90
2019-05-19T05:23:35.255Z,6.17
2019-05-19T05:26:04.839Z,5.80
2019-05-19T05:28:34.491Z,5.80
2019-05-19T05:31:04.143Z,6.40
2019-05-19T05:33:33.807Z,6.33
2019-05-19T05:36:03.532Z,6.50
2019-05-19T05:38:33.145Z,6.73
2019-05-19T05:41:02.754Z,6.63
2019-05-19T05:43:32.339Z,6.53
2019-05-19T05:46:01.928Z,6.90
2019-05-19T05:48:31.574Z,6.80
2019-05-19T05:51:01.170Z,7.50
2019-05-19T05:53:30.780Z,6.40
2019-05-19T05:56:00.363Z,6.23
2019-05-19T05:58:29.944Z,6.70
2019-05-19T06:00:59.594Z,6.37
2019-05-19T06:03:29.203Z,5.27
2019-05-19T06:05:58.798Z,6.47
2019-05-19T06:08:28.401Z,5.83
2019-05-19T06:10:58.011Z,5.83
2019-05-19T06:13:27.720Z,4.90
2019-05-19T06:15:57.351Z,5.40
2019-05-19T06:18:26.949Z,6.17
2019-05-19T06:20:56.562Z,5.60
2019-05-19T06:23:26.222Z,5.97
2019-05-19T06:25:55.822Z,5.53
2019-05-19T06:28:25.452Z,5.40
2019-05-19T06:30:55.089Z,5.60
2019-05-19T06:33:24.734Z,5.30
2019-05-19T06:35:54.353Z,5.30
2019-05-19T06:38:24.002Z,5.57
2019-05-19T06:40:53.731Z,5.50
2019-05-19T06:43:23.351Z,5.10
2019-05-19T06:45:52.977Z,4.77
2019-05-19T06:48:22.584Z,4.40
2019-05-19T06:50:52.156Z,4.77
2019-05-19T06:53:21.820Z,5.10
2019-05-19T06:55:51.424Z,5.23
2019-05-19T06:58:21.016Z,4.83
2019-05-19T07:00:50.657Z,5.07
2019-05-19T07:03:20.191Z,4.90
2019-05-19T07:05:49.860Z,4.90
2019-05-19T07:08:19.414Z,4.77
2019-05-19T07:10:48.987Z,4.50
2019-05-19T07:13:18.596Z,4.70
2019-05-19T07:15:48.201Z,4.43
2019-05-19T07:18:17.841Z,4.10
2019-05-19T07:20:47.408Z,4.50
2019-05-19T07:23:27.687Z,4.67
2019-05-19T07:25:48.369Z,4.23
2019-05-19T07:28:18.036Z,4.50
2019-05-19T07:30:47.698Z,4.20
2019-05-19T07:33:17.267Z,4.43
2019-05-19T07:35:46.875Z,4.90
2019-05-19T07:38:16.474Z,4.80
2019-05-19T07:40:46.138Z,4.70
2019-05-19T07:43:15.849Z,5.20
2019-05-19T07:45:45.404Z,4.90
2019-05-19T07:48:14.971Z,5.33
2019-05-19T07:50:44.591Z,4.80
2019-05-19T07:53:14.243Z,5.33
2019-05-19T07:55:43.971Z,4.60
2019-05-19T07:58:13.584Z,4.40
2019-05-19T08:00:43.146Z,4.50
2019-05-19T08:03:12.745Z,4.97
2019-05-19T08:05:42.356Z,4.73
2019-05-19T08:08:12.068Z,5.20
2019-05-19T08:10:41.708Z,4.50
2019-05-19T08:13:11.333Z,4.20
2019-05-19T08:15:40.951Z,4.50
2019-05-19T08:18:10.619Z,4.87
2019-05-19T08:20:40.243Z,4.60
2019-05-19T08:23:09.860Z,4.63
2019-05-19T08:25:39.482Z,4.57
2019-05-19T08:28:09.365Z,4.57
2019-05-19T08:30:39.002Z,5.00
2019-05-19T08:33:08.668Z,4.60
2019-05-19T08:35:38.298Z,4.60
2019-05-19T08:38:07.919Z,4.70
2019-05-19T08:40:37.539Z,4.50
2019-05-19T08:43:07.082Z,5.07
2019-05-19T08:45:36.735Z,4.83
2019-05-19T08:48:06.346Z,4.80
2019-05-19T08:50:36.055Z,4.43
2019-05-19T08:53:05.666Z,4.40
2019-05-19T08:55:35.259Z,5.30
2019-05-19T08:58:05.043Z,4.47
2019-05-19T09:00:38.246Z,4.60
2019-05-19T09:03:06.000Z,4.50
2019-05-19T09:05:35.593Z,4.50
2019-05-19T09:08:05.172Z,4.63
2019-05-19T09:10:34.831Z,4.20
2019-05-19T09:13:04.428Z,5.17
2019-05-19T09:15:34.040Z,4.40
2019-05-19T09:18:03.686Z,4.60
2019-05-19T09:20:33.281Z,4.73
2019-05-19T09:23:02.997Z,4.70
2019-05-19T09:25:32.636Z,5.00
2019-05-19T09:28:02.243Z,4.37
2019-05-19T09:30:31.891Z,4.70
2019-05-19T09:33:01.565Z,5.10
2019-05-19T09:35:31.189Z,4.80
2019-05-19T09:38:00.798Z,5.23
2019-05-19T09:40:30.437Z,5.00
2019-05-19T09:42:59.993Z,5.20
2019-05-19T09:45:29.629Z,5.20
2019-05-19T09:47:59.294Z,4.50
2019-05-19T09:50:28.903Z,5.50
2019-05-19T09:52:58.515Z,4.97
2019-05-19T09:55:28.122Z,4.97
2019-05-19T09:57:57.713Z,4.60
2019-05-19T10:00:27.445Z,5.20
2019-05-19T10:02:56.980Z,4.87
2019-05-19T10:05:26.589Z,5.50
2019-05-19T10:07:56.164Z,5.67
2019-05-19T10:10:41.086Z,5.20
2019-05-19T10:13:10.765Z,4.87
2019-05-19T10:15:40.375Z,4.97
2019-05-19T10:18:10.088Z,5.33
2019-05-19T10:20:39.694Z,4.93
2019-05-19T10:23:09.295Z,5.53
2019-05-19T10:25:38.857Z,4.90
2019-05-19T10:28:08.447Z,4.97
2019-05-19T10:30:38.092Z,4.80
2019-05-19T10:33:07.755Z,5.03
2019-05-19T10:35:37.429Z,4.77
2019-05-19T10:38:06.956Z,4.53
2019-05-19T10:40:36.525Z,4.77
2019-05-19T10:43:06.122Z,4.30
2019-05-19T10:45:36.274Z,4.33
2019-05-19T10:48:05.872Z,4.63
2019-05-19T10:50:35.434Z,4.10
2019-05-19T10:53:05.015Z,4.40
2019-05-19T10:55:36.766Z,3.80
2019-05-19T10:58:06.075Z,3.80
2019-05-19T11:00:35.795Z,4.10
2019-05-19T11:03:05.411Z,4.10
2019-05-19T11:05:34.968Z,3.80
2019-05-19T11:08:04.606Z,3.77
2019-05-19T11:10:34.209Z,4.00
2019-05-19T11:13:03.773Z,3.57
2019-05-19T11:15:33.372Z,3.10
2019-05-19T11:18:06.242Z,3.33
2019-05-19T11:20:34.366Z,3.53
2019-05-19T11:23:03.975Z,3.20
2019-05-19T11:25:34.548Z,3.50
2019-05-19T11:28:04.150Z,3.30
2019-05-19T11:30:33.730Z,2.80
2019-05-19T11:33:03.352Z,2.70
2019-05-19T11:35:32.923Z,2.43
2019-05-19T11:38:02.536Z,2.67
2019-05-19T11:40:32.106Z,2.37
2019-05-19T11:43:01.838Z,2.70
2019-05-19T11:45:31.506Z,2.63
2019-05-19T11:48:01.120Z,2.50
2019-05-19T11:50:30.684Z,2.30
2019-05-19T11:53:00.289Z,2.70
2019-05-19T11:55:29.882Z,2.20
2019-05-19T11:57:59.586Z,2.70
2019-05-19T12:00:29.153Z,2.70
2019-05-19T12:02:58.713Z,2.60
2019-05-19T12:05:28.336Z,2.77
2019-05-19T12:07:57.921Z,2.53
2019-05-19T12:10:27.564Z,2.72
2019-05-19T12:12:57.191Z,3.03
2019-05-19T12:15:26.769Z,2.67
2019-05-19T12:17:56.407Z,2.60
2019-05-19T12:20:25.989Z,2.50
2019-05-19T12:22:55.633Z,2.40
2019-05-19T12:25:25.236Z,2.57
2019-05-19T12:27:54.859Z,2.52
2019-05-19T12:30:24.565Z,2.80
2019-05-19T12:32:54.187Z,2.80
2019-05-19T12:35:23.877Z,2.72
2019-05-19T12:37:53.523Z,2.43
2019-05-19T12:40:23.279Z,2.47
2019-05-19T12:42:52.935Z,2.62
2019-05-19T12:45:22.737Z,2.60
2019-05-19T12:47:52.745Z,2.35
2019-05-19T12:50:22.541Z,2.60
2019-05-19T12:52:52.121Z,2.45
2019-05-19T12:55:21.834Z,2.40
2019-05-19T12:57:52.238Z,2.00
2019-05-19T13:00:22.040Z,2.12
2019-05-19T13:02:51.632Z,1.72
2019-05-19T13:05:21.210Z,2.20
2019-05-19T13:07:50.819Z,2.00
2019-05-19T13:10:20.572Z,2.17
2019-05-19T13:12:50.182Z,2.20
2019-05-19T13:15:20.007Z,2.20
2019-05-19T13:17:49.696Z,2.03
2019-05-19T13:20:19.749Z,1.97
2019-05-19T13:22:49.298Z,2.00
2019-05-19T13:25:18.928Z,2.00
2019-05-19T13:27:48.563Z,2.23
2019-05-19T13:30:18.629Z,2.40
2019-05-19T13:32:48.228Z,2.33
2019-05-19T13:35:18.011Z,1.95
2019-05-19T13:37:47.678Z,1.80
2019-05-19T13:40:17.394Z,2.00
2019-05-19T13:42:46.960Z,1.85
2019-05-19T13:45:16.726Z,2.20
2019-05-19T13:47:46.465Z,2.25
2019-05-19T13:50:16.310Z,2.10
2019-05-19T13:52:47.029Z,2.33
2019-05-19T13:55:17.110Z,2.10
2019-05-19T13:57:46.694Z,2.40
2019-05-19T14:00:16.608Z,2.10
2019-05-19T14:02:46.190Z,2.27
2019-05-19T14:05:15.854Z,2.55
2019-05-19T14:07:45.447Z,2.20
2019-05-19T14:10:15.447Z,2.05
2019-05-19T14:12:45.031Z,2.47
2019-05-19T14:15:14.705Z,1.95
2019-05-19T14:17:44.341Z,2.12
2019-05-19T14:20:14.397Z,2.10
2019-05-19T14:22:43.980Z,2.50
2019-05-19T14:25:13.753Z,2.62
2019-05-19T14:27:43.318Z,2.62
2019-05-19T14:30:13.423Z,2.00
2019-05-19T14:32:42.999Z,2.40
2019-05-19T14:35:12.731Z,2.40
2019-05-19T14:37:42.328Z,2.50
2019-05-19T14:40:12.012Z,2.40
2019-05-19T14:42:49.177Z,2.50
2019-05-19T14:45:19.685Z,2.52
2019-05-19T14:47:49.349Z,3.40
2019-05-19T14:50:20.506Z,2.70
2019-05-19T14:52:50.064Z,2.22
2019-05-19T14:55:20.400Z,2.60
2019-05-19T14:57:49.978Z,2.50
2019-05-19T15:00:19.995Z,2.20
2019-05-19T15:02:49.710Z,2.22
2019-05-19T15:05:19.504Z,2.15
2019-05-19T15:07:49.073Z,2.30
2019-05-19T15:10:18.763Z,2.22
2019-05-19T15:12:48.339Z,2.25
2019-05-19T15:15:18.148Z,2.00
2019-05-19T15:17:47.769Z,2.50
2019-05-19T15:20:17.330Z,2.17
2019-05-19T15:22:46.951Z,2.55
2019-05-19T15:25:16.620Z,2.47
2019-05-19T15:27:59.335Z,2.30
2019-05-19T15:30:17.822Z,2.37
2019-05-19T15:32:47.405Z,2.02
2019-05-19T15:35:17.248Z,2.55
2019-05-19T15:37:46.827Z,2.37
2019-05-19T15:40:16.426Z,2.85
2019-05-19T15:42:46.054Z,2.55
2019-05-19T15:45:15.901Z,1.67
2019-05-19T15:47:45.535Z,2.10
2019-05-19T15:50:15.621Z,1.60
2019-05-19T15:52:45.261Z,1.92
2019-05-19T15:55:15.066Z,1.95
2019-05-19T15:57:44.697Z,1.50
2019-05-19T16:00:15.416Z,1.80
2019-05-19T16:02:45.028Z,1.80
2019-05-19T16:05:15.089Z,1.55
2019-05-19T16:07:44.692Z,1.70
2019-05-19T16:10:15.200Z,1.65
2019-05-19T16:12:44.838Z,1.62
2019-05-19T16:15:14.770Z,1.62
2019-05-19T16:17:44.363Z,1.80
2019-05-19T16:20:14.140Z,1.87
2019-05-19T16:22:43.702Z,1.35
2019-05-19T16:25:13.566Z,1.60
2019-05-19T16:27:43.206Z,1.50
2019-05-19T16:30:13.098Z,1.90
2019-05-19T16:32:42.723Z,1.62
2019-05-19T16:35:12.608Z,1.80
2019-05-19T16:37:42.289Z,1.62
2019-05-19T16:40:12.493Z,1.80
2019-05-19T16:42:42.119Z,1.57
2019-05-19T16:45:12.055Z,1.63
2019-05-19T16:47:41.678Z,1.77
2019-05-19T16:50:11.577Z,1.80
2019-05-19T16:52:41.273Z,1.20
2019-05-19T16:55:21.644Z,2.03
2019-05-19T16:57:51.245Z,2.27
2019-05-19T17:00:21.265Z,1.90
2019-05-19T17:02:50.890Z,1.83
2019-05-19T17:05:20.635Z,1.90
2019-05-19T17:07:50.386Z,1.90
2019-05-19T17:10:20.578Z,2.20
2019-05-19T17:12:50.194Z,1.87
2019-05-19T17:15:20.090Z,1.83
2019-05-19T17:17:49.666Z,1.60
2019-05-19T17:20:20.485Z,1.80
2019-05-19T17:22:50.095Z,1.70
2019-05-19T17:25:19.694Z,1.90
2019-05-19T17:27:49.291Z,2.10
2019-05-19T17:30:19.398Z,2.00
2019-05-19T17:32:49.031Z,1.97
2019-05-19T17:35:18.846Z,1.70
2019-05-19T17:37:48.452Z,1.90
2019-05-19T17:40:18.574Z,1.90
2019-05-19T17:42:48.185Z,1.70
2019-05-19T17:45:18.927Z,2.00
2019-05-19T17:47:48.505Z,1.60
2019-05-19T17:50:21.518Z,2.10
2019-05-19T17:52:51.189Z,1.63
2019-05-19T17:55:20.805Z,2.10
2019-05-19T17:57:50.742Z,2.30
2019-05-19T18:00:26.711Z,1.70
2019-05-19T18:02:56.353Z,1.83
2019-05-19T18:05:26.191Z,1.97
2019-05-19T18:07:55.810Z,1.93
2019-05-19T18:10:25.452Z,2.07
2019-05-19T18:12:55.068Z,2.17
2019-05-19T18:15:24.718Z,2.03
2019-05-19T18:17:54.356Z,2.40
2019-05-19T18:20:24.447Z,2.10
2019-05-19T18:22:54.189Z,2.20
2019-05-19T18:25:23.871Z,2.13
2019-05-19T18:27:53.551Z,1.80
2019-05-19T18:30:23.313Z,2.03
2019-05-19T18:32:52.931Z,2.20
2019-05-19T18:35:22.588Z,2.10
2019-05-19T18:37:52.240Z,2.77
2019-05-19T18:40:22.456Z,1.90
2019-05-19T18:42:52.078Z,1.40
2019-05-19T18:45:21.852Z,1.90
2019-05-19T18:47:51.455Z,2.23
2019-05-19T18:50:21.049Z,2.23
2019-05-19T18:52:50.822Z,2.70
2019-05-19T18:55:20.423Z,2.67
2019-05-19T18:57:50.034Z,1.40
2019-05-19T19:00:37.553Z,1.60
2019-05-19T19:03:07.757Z,1.60
2019-05-19T19:05:37.707Z,1.17
2019-05-19T19:08:07.377Z,1.60
2019-05-19T19:10:36.996Z,1.30
2019-05-19T19:13:06.701Z,1.50
2019-05-19T19:15:36.296Z,1.60
2019-05-19T19:18:08.370Z,1.23
2019-05-19T19:20:38.013Z,1.40
2019-05-19T19:23:07.590Z,1.30
2019-05-19T19:25:37.176Z,1.30
2019-05-19T19:28:06.774Z,1.20
2019-05-19T19:30:36.420Z,1.23
2019-05-19T19:33:06.155Z,1.30
2019-05-19T19:35:39.300Z,1.40
2019-05-19T19:38:07.245Z,1.40
2019-05-19T19:40:36.873Z,1.23
2019-05-19T19:43:06.524Z,1.30
2019-05-19T19:45:36.156Z,1.90
2019-05-19T19:48:05.857Z,2.00
2019-05-19T19:50:35.682Z,2.33
2019-05-19T19:53:05.346Z,2.23
2019-05-19T19:55:34.953Z,2.40
2019-05-19T19:58:04.610Z,2.00
2019-05-19T20:00:44.947Z,2.00
2019-05-19T20:03:16.057Z,2.23
2019-05-19T20:05:45.730Z,2.43
2019-05-19T20:08:15.321Z,2.37
2019-05-19T20:10:44.913Z,2.20
2019-05-19T20:13:14.518Z,2.27
2019-05-19T20:15:44.145Z,2.10
2019-05-19T20:18:13.707Z,2.40
2019-05-19T20:20:43.356Z,2.07
2019-05-19T20:23:13.011Z,1.90
2019-05-19T20:25:42.628Z,1.73
2019-05-19T20:28:12.245Z,1.50
2019-05-19T20:30:41.840Z,1.90
2019-05-19T20:33:11.550Z,1.93
2019-05-19T20:35:41.150Z,1.67
2019-05-19T20:38:10.738Z,1.63
2019-05-19T20:40:40.465Z,1.90
2019-05-19T20:43:10.167Z,1.87
2019-05-19T20:45:39.901Z,1.83
2019-05-19T20:48:09.607Z,1.90
2019-05-19T20:50:39.392Z,1.80
2019-05-19T20:53:09.061Z,1.53
2019-05-19T20:55:38.756Z,2.00
2019-05-19T20:58:08.489Z,1.80
2019-05-19T21:00:50.159Z,1.90
2019-05-19T21:03:09.536Z,2.20
2019-05-19T21:05:39.295Z,2.93
2019-05-19T21:08:08.998Z,2.20
2019-05-19T21:10:38.780Z,1.93
2019-05-19T21:13:08.486Z,1.93
2019-05-19T21:15:38.112Z,1.77
2019-05-19T21:18:07.744Z,1.70
2019-05-19T21:20:37.457Z,1.67
2019-05-19T21:23:07.157Z,1.90
2019-05-19T21:25:37.063Z,2.00
2019-05-19T21:28:06.766Z,2.20
2019-05-19T21:30:36.459Z,2.10
2019-05-19T21:33:06.086Z,1.70
2019-05-19T21:35:35.952Z,1.80
2019-05-19T21:38:05.649Z,1.67
2019-05-19T21:40:35.307Z,1.50
2019-05-19T21:43:05.047Z,1.73
2019-05-19T21:45:34.728Z,1.73
2019-05-19T21:48:04.477Z,1.70
2019-05-19T21:50:34.124Z,1.67
2019-05-19T21:53:06.468Z,1.50
2019-05-19T21:55:35.276Z,1.60
2019-05-19T21:58:04.981Z,1.70
2019-05-19T22:00:35.274Z,1.73
2019-05-19T22:03:05.086Z,1.70
2019-05-19T22:05:34.760Z,1.70
2019-05-19T22:08:10.563Z,1.67
2019-05-19T22:10:40.338Z,1.63
2019-05-19T22:13:10.061Z,1.60
2019-05-19T22:15:39.787Z,1.57
2019-05-19T22:18:09.444Z,1.73
2019-05-19T22:20:39.130Z,2.10
2019-05-19T22:23:08.811Z,1.90
2019-05-19T22:25:38.556Z,1.73
2019-05-19T22:28:08.291Z,1.73
2019-05-19T22:30:37.969Z,1.53
2019-05-19T22:33:07.727Z,1.37
2019-05-19T22:35:37.416Z,1.40
2019-05-19T22:38:09.421Z,1.27
2019-05-19T22:40:38.528Z,1.40
2019-05-19T22:43:08.243Z,1.67
2019-05-19T22:45:37.964Z,1.47
2019-05-19T22:48:07.629Z,1.30
2019-05-19T22:50:37.351Z,1.37
2019-05-19T22:53:07.004Z,1.20
2019-05-19T22:55:36.656Z,1.30
2019-05-19T22:58:06.332Z,1.30
2019-05-19T23:00:36.066Z,1.50
2019-05-19T23:03:05.937Z,1.30
2019-05-19T23:05:35.638Z,1.20
2019-05-19T23:08:05.274Z,1.50
2019-05-19T23:10:34.947Z,1.43
2019-05-19T23:13:04.717Z,1.60
2019-05-19T23:15:34.455Z,1.40
2019-05-19T23:18:04.103Z,1.57
2019-05-19T23:20:33.835Z,1.50
2019-05-19T23:23:03.542Z,1.10
2019-05-19T23:25:33.195Z,1.23
2019-05-19T23:28:02.955Z,1.20
2019-05-19T23:30:32.634Z,1.37
2019-05-19T23:33:02.291Z,1.40
2019-05-19T23:35:31.970Z,1.50
2019-05-19T23:38:01.655Z,1.60
2019-05-19T23:40:31.352Z,1.30
2019-05-19T23:43:01.018Z,1.20
2019-05-19T23:45:30.713Z,1.43
2019-05-19T23:48:00.388Z,1.37
2019-05-19T23:50:30.081Z,1.70
2019-05-19T23:52:59.791Z,1.53
2019-05-19T23:55:29.424Z,1.33
2019-05-19T23:57:59.117Z,1.37
